sensor_id;sensor_type;location;lat;lon;timestamp;temperature;humidity
9486;DHT22;4781;48.776;9.200;2023-02-28T00:01:47;-1.30;96.80
9486;DHT22;4781;48.776;9.200;2023-02-28T00:04:15;-1.30;97.20
9486;DHT22;4781;48.776;9.200;2023-02-28T00:06:44;-1.40;97.00
9486;DHT22;4781;48.776;9.200;2023-02-28T00:09:12;-1.40;96.90
9486;DHT22;4781;48.776;9.200;2023-02-28T00:11:40;-1.50;97.00
9486;DHT22;4781;48.776;9.200;2023-02-28T00:14:09;-1.50;97.20
9486;DHT22;4781;48.776;9.200;2023-02-28T00:16:37;-1.50;97.10
9486;DHT22;4781;48.776;9.200;2023-02-28T00:19:05;-1.50;97.30
9486;DHT22;4781;48.776;9.200;2023-02-28T00:21:34;-1.50;97.20
9486;DHT22;4781;48.776;9.200;2023-02-28T00:24:02;-1.50;97.30
9486;DHT22;4781;48.776;9.200;2023-02-28T00:26:31;-1.60;97.30
9486;DHT22;4781;48.776;9.200;2023-02-28T00:28:59;-1.60;97.40
9486;DHT22;4781;48.776;9.200;2023-02-28T00:31:28;-1.60;97.60
9486;DHT22;4781;48.776;9.200;2023-02-28T00:33:56;-1.60;97.60
9486;DHT22;4781;48.776;9.200;2023-02-28T00:36:24;-1.60;97.90
9486;DHT22;4781;48.776;9.200;2023-02-28T00:38:57;-1.70;97.70
9486;DHT22;4781;48.776;9.200;2023-02-28T00:41:25;-1.70;98.00
9486;DHT22;4781;48.776;9.200;2023-02-28T00:43:54;-1.70;98.10
9486;DHT22;4781;48.776;9.200;2023-02-28T00:46:22;-1.70;98.00
9486;DHT22;4781;48.776;9.200;2023-02-28T00:48:51;-1.80;98.10
9486;DHT22;4781;48.776;9.200;2023-02-28T00:51:19;-1.80;98.50
9486;DHT22;4781;48.776;9.200;2023-02-28T00:53:47;-1.80;98.40
9486;DHT22;4781;48.776;9.200;2023-02-28T00:56:16;-1.80;98.40
9486;DHT22;4781;48.776;9.200;2023-02-28T00:58:44;-1.80;98.60
9486;DHT22;4781;48.776;9.200;2023-02-28T01:01:13;-1.80;98.60
9486;DHT22;4781;48.776;9.200;2023-02-28T01:03:41;-1.90;98.70
9486;DHT22;4781;48.776;9.200;2023-02-28T01:06:09;-1.90;98.80
9486;DHT22;4781;48.776;9.200;2023-02-28T01:08:38;-1.90;98.90
9486;DHT22;4781;48.776;9.200;2023-02-28T01:11:09;-1.90;98.80
9486;DHT22;4781;48.776;9.200;2023-02-28T01:13:41;-1.80;99.40
9486;DHT22;4781;48.776;9.200;2023-02-28T01:16:09;-1.90;99.10
9486;DHT22;4781;48.776;9.200;2023-02-28T01:18:37;-1.90;99.50
9486;DHT22;4781;48.776;9.200;2023-02-28T01:21:10;-1.90;99.60
9486;DHT22;4781;48.776;9.200;2023-02-28T01:23:40;-2.00;99.50
9486;DHT22;4781;48.776;9.200;2023-02-28T01:26:12;-2.00;99.70
9486;DHT22;4781;48.776;9.200;2023-02-28T01:28:42;-2.00;99.80
9486;DHT22;4781;48.776;9.200;2023-02-28T01:31:10;-2.00;99.70
9486;DHT22;4781;48.776;9.200;2023-02-28T01:33:39;-2.00;99.90
9486;DHT22;4781;48.776;9.200;2023-02-28T01:36:23;-2.00;99.90
9486;DHT22;4781;48.776;9.200;2023-02-28T01:38:49;-2.00;99.90
9486;DHT22;4781;48.776;9.200;2023-02-28T01:41:23;-2.00;99.90
9486;DHT22;4781;48.776;9.200;2023-02-28T01:44:00;-2.10;99.90
9486;DHT22;4781;48.776;9.200;2023-02-28T01:46:36;-2.00;99.90
9486;DHT22;4781;48.776;9.200;2023-02-28T01:49:07;-2.00;99.90
9486;DHT22;4781;48.776;9.200;2023-02-28T01:51:40;-2.00;99.90
9486;DHT22;4781;48.776;9.200;2023-02-28T01:54:19;-2.00;99.90
9486;DHT22;4781;48.776;9.200;2023-02-28T01:56:48;-2.00;99.90
9486;DHT22;4781;48.776;9.200;2023-02-28T01:59:29;-2.00;99.90
9486;DHT22;4781;48.776;9.200;2023-02-28T02:01:55;-2.00;99.90
9486;DHT22;4781;48.776;9.200;2023-02-28T02:04:27;-2.00;99.90
9486;DHT22;4781;48.776;9.200;2023-02-28T02:06:58;-2.00;99.90
9486;DHT22;4781;48.776;9.200;2023-02-28T02:09:29;-2.00;99.90
9486;DHT22;4781;48.776;9.200;2023-02-28T02:11:57;-2.00;99.90
9486;DHT22;4781;48.776;9.200;2023-02-28T02:14:41;-2.00;99.90
9486;DHT22;4781;48.776;9.200;2023-02-28T02:17:39;-2.10;99.90
9486;DHT22;4781;48.776;9.200;2023-02-28T02:20:30;-2.10;99.90
9486;DHT22;4781;48.776;9.200;2023-02-28T02:26:51;-2.00;99.90
9486;DHT22;4781;48.776;9.200;2023-02-28T02:32:25;-2.00;99.90
9486;DHT22;4781;48.776;9.200;2023-02-28T02:35:08;-2.00;99.90
9486;DHT22;4781;48.776;9.200;2023-02-28T02:37:51;-2.00;99.90
9486;DHT22;4781;48.776;9.200;2023-02-28T02:40:23;-2.00;99.90
9486;DHT22;4781;48.776;9.200;2023-02-28T02:43:25;-2.00;99.90
9486;DHT22;4781;48.776;9.200;2023-02-28T02:45:59;-1.90;99.90
9486;DHT22;4781;48.776;9.200;2023-02-28T02:48:29;-1.90;99.90
9486;DHT22;4781;48.776;9.200;2023-02-28T02:51:01;-1.90;99.90
9486;DHT22;4781;48.776;9.200;2023-02-28T02:53:36;-1.90;99.90
9486;DHT22;4781;48.776;9.200;2023-02-28T02:56:09;-1.90;99.90
9486;DHT22;4781;48.776;9.200;2023-02-28T02:58:41;-1.90;99.90
9486;DHT22;4781;48.776;9.200;2023-02-28T03:01:17;-1.90;99.90
9486;DHT22;4781;48.776;9.200;2023-02-28T03:03:49;-1.90;99.90
9486;DHT22;4781;48.776;9.200;2023-02-28T03:06:18;-1.90;99.90
9486;DHT22;4781;48.776;9.200;2023-02-28T03:08:46;-1.90;99.90
9486;DHT22;4781;48.776;9.200;2023-02-28T03:11:16;-1.90;99.90
9486;DHT22;4781;48.776;9.200;2023-02-28T03:16:49;-1.80;99.90
9486;DHT22;4781;48.776;9.200;2023-02-28T03:19:25;-1.80;99.90
9486;DHT22;4781;48.776;9.200;2023-02-28T03:27:34;-1.80;99.90
9486;DHT22;4781;48.776;9.200;2023-02-28T03:30:00;-1.80;99.90
9486;DHT22;4781;48.776;9.200;2023-02-28T03:32:44;-1.80;99.90
9486;DHT22;4781;48.776;9.200;2023-02-28T03:35:21;-1.80;99.90
9486;DHT22;4781;48.776;9.200;2023-02-28T03:37:55;-1.70;99.90
9486;DHT22;4781;48.776;9.200;2023-02-28T03:40:27;-1.70;99.90
9486;DHT22;4781;48.776;9.200;2023-02-28T03:43:01;-1.70;99.90
9486;DHT22;4781;48.776;9.200;2023-02-28T03:45:32;-1.70;99.90
9486;DHT22;4781;48.776;9.200;2023-02-28T03:48:19;-1.70;99.90
9486;DHT22;4781;48.776;9.200;2023-02-28T03:50:53;-1.70;99.90
9486;DHT22;4781;48.776;9.200;2023-02-28T03:53:36;-1.60;99.90
9486;DHT22;4781;48.776;9.200;2023-02-28T03:56:09;-1.60;99.90
9486;DHT22;4781;48.776;9.200;2023-02-28T04:01:49;-1.60;99.90
9486;DHT22;4781;48.776;9.200;2023-02-28T04:04:18;-1.60;99.90
9486;DHT22;4781;48.776;9.200;2023-02-28T04:06:49;-1.60;99.90
9486;DHT22;4781;48.776;9.200;2023-02-28T04:09:20;-1.60;99.90
9486;DHT22;4781;48.776;9.200;2023-02-28T04:11:52;-1.50;99.90
9486;DHT22;4781;48.776;9.200;2023-02-28T04:14:27;-1.50;99.90
9486;DHT22;4781;48.776;9.200;2023-02-28T04:16:52;-1.50;99.90
9486;DHT22;4781;48.776;9.200;2023-02-28T04:19:20;-1.20;99.90
9486;DHT22;4781;48.776;9.200;2023-02-28T04:21:51;-1.50;99.90
9486;DHT22;4781;48.776;9.200;2023-02-28T04:24:22;-1.50;99.90
9486;DHT22;4781;48.776;9.200;2023-02-28T04:26:55;-1.40;99.90
9486;DHT22;4781;48.776;9.200;2023-02-28T04:29:27;-1.40;99.90
9486;DHT22;4781;48.776;9.200;2023-02-28T04:34:28;-1.40;99.90
9486;DHT22;4781;48.776;9.200;2023-02-28T04:36:58;-1.40;99.90
9486;DHT22;4781;48.776;9.200;2023-02-28T04:39:26;-1.40;99.90
9486;DHT22;4781;48.776;9.200;2023-02-28T04:41:55;-1.40;99.90
9486;DHT22;4781;48.776;9.200;2023-02-28T04:44:24;-1.30;99.90
9486;DHT22;4781;48.776;9.200;2023-02-28T04:46:52;-1.30;99.90
9486;DHT22;4781;48.776;9.200;2023-02-28T04:49:20;-1.30;99.90
9486;DHT22;4781;48.776;9.200;2023-02-28T04:51:49;-1.40;99.90
9486;DHT22;4781;48.776;9.200;2023-02-28T04:54:17;-1.30;99.90
9486;DHT22;4781;48.776;9.200;2023-02-28T04:56:45;-1.30;99.90
9486;DHT22;4781;48.776;9.200;2023-02-28T04:59:15;-1.30;99.90
9486;DHT22;4781;48.776;9.200;2023-02-28T05:01:48;-1.30;99.90
9486;DHT22;4781;48.776;9.200;2023-02-28T05:04:17;-1.30;99.90
9486;DHT22;4781;48.776;9.200;2023-02-28T05:06:45;-1.30;99.90
9486;DHT22;4781;48.776;9.200;2023-02-28T05:09:14;-1.30;99.90
9486;DHT22;4781;48.776;9.200;2023-02-28T05:11:42;-1.30;99.90
9486;DHT22;4781;48.776;9.200;2023-02-28T05:14:13;-1.30;99.90
9486;DHT22;4781;48.776;9.200;2023-02-28T05:16:42;-1.20;99.90
9486;DHT22;4781;48.776;9.200;2023-02-28T05:19:10;-1.30;99.90
9486;DHT22;4781;48.776;9.200;2023-02-28T05:21:50;-1.30;99.90
9486;DHT22;4781;48.776;9.200;2023-02-28T05:24:20;-1.20;99.90
9486;DHT22;4781;48.776;9.200;2023-02-28T05:26:54;-1.30;99.90
9486;DHT22;4781;48.776;9.200;2023-02-28T05:29:22;-1.20;99.90
9486;DHT22;4781;48.776;9.200;2023-02-28T05:31:54;-1.20;99.90
9486;DHT22;4781;48.776;9.200;2023-02-28T05:34:22;-1.20;99.90
9486;DHT22;4781;48.776;9.200;2023-02-28T05:36:50;-1.20;99.90
9486;DHT22;4781;48.776;9.200;2023-02-28T05:39:20;-1.20;99.90
9486;DHT22;4781;48.776;9.200;2023-02-28T05:41:49;-1.20;99.90
9486;DHT22;4781;48.776;9.200;2023-02-28T05:44:17;-1.20;99.90
9486;DHT22;4781;48.776;9.200;2023-02-28T05:46:45;-1.20;99.90
9486;DHT22;4781;48.776;9.200;2023-02-28T05:49:14;-1.20;99.90
9486;DHT22;4781;48.776;9.200;2023-02-28T05:51:46;-1.20;99.90
9486;DHT22;4781;48.776;9.200;2023-02-28T05:54:14;-1.20;99.90
9486;DHT22;4781;48.776;9.200;2023-02-28T05:56:43;-1.20;99.90
9486;DHT22;4781;48.776;9.200;2023-02-28T05:59:15;-1.20;99.90
9486;DHT22;4781;48.776;9.200;2023-02-28T06:01:44;-1.20;99.90
9486;DHT22;4781;48.776;9.200;2023-02-28T06:04:19;-1.20;99.90
9486;DHT22;4781;48.776;9.200;2023-02-28T06:06:48;-1.20;99.90
9486;DHT22;4781;48.776;9.200;2023-02-28T06:09:19;-1.20;99.90
9486;DHT22;4781;48.776;9.200;2023-02-28T06:11:50;-1.20;99.90
9486;DHT22;4781;48.776;9.200;2023-02-28T06:14:19;-1.10;99.90
9486;DHT22;4781;48.776;9.200;2023-02-28T06:16:50;-1.10;99.90
9486;DHT22;4781;48.776;9.200;2023-02-28T06:19:18;-1.10;99.90
9486;DHT22;4781;48.776;9.200;2023-02-28T06:21:50;-1.10;99.90
9486;DHT22;4781;48.776;9.200;2023-02-28T06:24:20;-1.10;99.90
9486;DHT22;4781;48.776;9.200;2023-02-28T06:26:49;-1.10;99.90
9486;DHT22;4781;48.776;9.200;2023-02-28T06:29:17;-1.10;99.90
9486;DHT22;4781;48.776;9.200;2023-02-28T06:31:46;-1.10;99.90
9486;DHT22;4781;48.776;9.200;2023-02-28T06:34:15;-1.10;99.90
9486;DHT22;4781;48.776;9.200;2023-02-28T06:36:43;-1.10;99.90
9486;DHT22;4781;48.776;9.200;2023-02-28T06:39:12;-1.10;99.90
9486;DHT22;4781;48.776;9.200;2023-02-28T06:41:40;-1.00;99.90
9486;DHT22;4781;48.776;9.200;2023-02-28T06:44:15;-1.00;99.90
9486;DHT22;4781;48.776;9.200;2023-02-28T06:46:44;-1.00;99.90
9486;DHT22;4781;48.776;9.200;2023-02-28T06:49:13;-1.00;99.90
9486;DHT22;4781;48.776;9.200;2023-02-28T06:51:44;-0.90;99.90
9486;DHT22;4781;48.776;9.200;2023-02-28T06:54:13;-0.90;99.90
9486;DHT22;4781;48.776;9.200;2023-02-28T06:56:41;-0.90;99.90
9486;DHT22;4781;48.776;9.200;2023-02-28T06:59:10;-0.90;99.90
9486;DHT22;4781;48.776;9.200;2023-02-28T07:01:38;-0.90;99.90
9486;DHT22;4781;48.776;9.200;2023-02-28T07:04:07;-0.90;99.90
9486;DHT22;4781;48.776;9.200;2023-02-28T07:06:35;-0.80;99.90
9486;DHT22;4781;48.776;9.200;2023-02-28T07:09:04;-0.90;99.90
9486;DHT22;4781;48.776;9.200;2023-02-28T07:11:32;-0.90;99.90
9486;DHT22;4781;48.776;9.200;2023-02-28T07:14:00;-0.80;99.90
9486;DHT22;4781;48.776;9.200;2023-02-28T07:16:29;-0.80;99.90
9486;DHT22;4781;48.776;9.200;2023-02-28T07:18:57;-0.70;99.90
9486;DHT22;4781;48.776;9.200;2023-02-28T07:21:26;-0.70;99.90
9486;DHT22;4781;48.776;9.200;2023-02-28T07:23:55;-0.70;99.90
9486;DHT22;4781;48.776;9.200;2023-02-28T07:26:24;-0.70;99.90
9486;DHT22;4781;48.776;9.200;2023-02-28T07:28:52;-0.70;99.90
9486;DHT22;4781;48.776;9.200;2023-02-28T07:31:21;-0.70;99.90
9486;DHT22;4781;48.776;9.200;2023-02-28T07:33:49;-0.70;99.90
9486;DHT22;4781;48.776;9.200;2023-02-28T07:36:17;-0.60;99.90
9486;DHT22;4781;48.776;9.200;2023-02-28T07:38:47;-0.60;99.90
9486;DHT22;4781;48.776;9.200;2023-02-28T07:41:20;-0.60;99.90
9486;DHT22;4781;48.776;9.200;2023-02-28T07:43:49;-0.60;99.90
9486;DHT22;4781;48.776;9.200;2023-02-28T07:46:20;-0.50;99.90
9486;DHT22;4781;48.776;9.200;2023-02-28T07:48:49;-0.50;99.90
9486;DHT22;4781;48.776;9.200;2023-02-28T07:51:17;-0.50;99.90
9486;DHT22;4781;48.776;9.200;2023-02-28T07:53:46;-0.50;99.90
9486;DHT22;4781;48.776;9.200;2023-02-28T07:56:21;-0.50;99.90
9486;DHT22;4781;48.776;9.200;2023-02-28T07:58:49;-0.40;99.90
9486;DHT22;4781;48.776;9.200;2023-02-28T08:01:18;-0.50;99.90
9486;DHT22;4781;48.776;9.200;2023-02-28T08:03:46;-0.40;99.90
9486;DHT22;4781;48.776;9.200;2023-02-28T08:06:20;-0.40;99.90
9486;DHT22;4781;48.776;9.200;2023-02-28T08:08:49;-0.40;99.90
9486;DHT22;4781;48.776;9.200;2023-02-28T08:11:18;-0.40;99.90
9486;DHT22;4781;48.776;9.200;2023-02-28T08:13:47;-0.30;99.90
9486;DHT22;4781;48.776;9.200;2023-02-28T08:16:15;-0.30;99.90
9486;DHT22;4781;48.776;9.200;2023-02-28T08:18:45;-0.30;99.90
9486;DHT22;4781;48.776;9.200;2023-02-28T08:21:13;-0.30;99.90
9486;DHT22;4781;48.776;9.200;2023-02-28T08:23:42;-0.30;99.90
9486;DHT22;4781;48.776;9.200;2023-02-28T08:26:10;-0.30;99.90
9486;DHT22;4781;48.776;9.200;2023-02-28T08:28:39;-0.30;99.90
9486;DHT22;4781;48.776;9.200;2023-02-28T08:31:09;-0.30;99.90
9486;DHT22;4781;48.776;9.200;2023-02-28T08:33:38;-0.20;99.90
9486;DHT22;4781;48.776;9.200;2023-02-28T08:36:08;-0.20;99.90
9486;DHT22;4781;48.776;9.200;2023-02-28T08:38:37;-0.20;99.90
9486;DHT22;4781;48.776;9.200;2023-02-28T08:41:08;-0.20;99.90
9486;DHT22;4781;48.776;9.200;2023-02-28T08:43:38;-0.10;99.90
9486;DHT22;4781;48.776;9.200;2023-02-28T08:46:08;-0.10;99.90
9486;DHT22;4781;48.776;9.200;2023-02-28T08:48:40;-0.10;99.90
9486;DHT22;4781;48.776;9.200;2023-02-28T08:51:12;-0.10;99.90
9486;DHT22;4781;48.776;9.200;2023-02-28T08:53:42;-0.10;99.90
9486;DHT22;4781;48.776;9.200;2023-02-28T08:56:14;-0.10;99.90
9486;DHT22;4781;48.776;9.200;2023-02-28T08:58:44;-0.10;99.90
9486;DHT22;4781;48.776;9.200;2023-02-28T09:01:18;0.00;99.90
9486;DHT22;4781;48.776;9.200;2023-02-28T09:03:49;0.00;99.90
9486;DHT22;4781;48.776;9.200;2023-02-28T09:06:21;0.00;99.90
9486;DHT22;4781;48.776;9.200;2023-02-28T09:08:51;0.00;99.90
9486;DHT22;4781;48.776;9.200;2023-02-28T09:11:20;0.10;99.90
9486;DHT22;4781;48.776;9.200;2023-02-28T09:13:48;0.10;99.90
9486;DHT22;4781;48.776;9.200;2023-02-28T09:16:18;0.20;99.90
9486;DHT22;4781;48.776;9.200;2023-02-28T09:18:46;0.20;99.90
9486;DHT22;4781;48.776;9.200;2023-02-28T09:21:16;0.20;99.90
9486;DHT22;4781;48.776;9.200;2023-02-28T09:23:47;0.20;99.90
9486;DHT22;4781;48.776;9.200;2023-02-28T09:26:25;0.30;99.90
9486;DHT22;4781;48.776;9.200;2023-02-28T09:28:55;0.40;99.90
9486;DHT22;4781;48.776;9.200;2023-02-28T09:31:27;0.40;99.90
9486;DHT22;4781;48.776;9.200;2023-02-28T09:33:57;0.40;99.90
9486;DHT22;4781;48.776;9.200;2023-02-28T09:36:27;0.40;99.90
9486;DHT22;4781;48.776;9.200;2023-02-28T09:38:56;0.50;99.90
9486;DHT22;4781;48.776;9.200;2023-02-28T09:41:30;0.50;99.90
9486;DHT22;4781;48.776;9.200;2023-02-28T09:44:03;0.60;99.90
9486;DHT22;4781;48.776;9.200;2023-02-28T09:46:45;0.70;99.90
9486;DHT22;4781;48.776;9.200;2023-02-28T09:49:17;0.70;99.90
9486;DHT22;4781;48.776;9.200;2023-02-28T09:51:59;0.70;99.90
9486;DHT22;4781;48.776;9.200;2023-02-28T09:54:36;0.80;99.90
9486;DHT22;4781;48.776;9.200;2023-02-28T09:59:57;0.80;99.90
9486;DHT22;4781;48.776;9.200;2023-02-28T10:02:41;0.80;99.90
9486;DHT22;4781;48.776;9.200;2023-02-28T10:05:41;0.80;99.90
9486;DHT22;4781;48.776;9.200;2023-02-28T10:08:12;0.80;99.90
9486;DHT22;4781;48.776;9.200;2023-02-28T10:22:25;0.90;99.90
9486;DHT22;4781;48.776;9.200;2023-02-28T10:25:16;0.80;99.90
9486;DHT22;4781;48.776;9.200;2023-02-28T10:27:45;0.80;99.90
9486;DHT22;4781;48.776;9.200;2023-02-28T10:30:14;1.00;99.90
9486;DHT22;4781;48.776;9.200;2023-02-28T10:32:53;1.10;99.90
9486;DHT22;4781;48.776;9.200;2023-02-28T10:35:21;1.20;99.90
9486;DHT22;4781;48.776;9.200;2023-02-28T10:37:53;1.40;99.90
9486;DHT22;4781;48.776;9.200;2023-02-28T10:40:27;1.50;99.90
9486;DHT22;4781;48.776;9.200;2023-02-28T10:43:01;1.60;99.90
9486;DHT22;4781;48.776;9.200;2023-02-28T10:45:31;1.60;99.90
9486;DHT22;4781;48.776;9.200;2023-02-28T10:53:30;1.70;99.90
9486;DHT22;4781;48.776;9.200;2023-02-28T10:59:02;1.80;99.90
9486;DHT22;4781;48.776;9.200;2023-02-28T11:07:05;1.80;99.90
9486;DHT22;4781;48.776;9.200;2023-02-28T11:09:40;1.70;99.90
9486;DHT22;4781;48.776;9.200;2023-02-28T11:12:33;2.00;99.90
9486;DHT22;4781;48.776;9.200;2023-02-28T11:15:17;2.60;99.90
9486;DHT22;4781;48.776;9.200;2023-02-28T11:17:55;3.20;99.90
9486;DHT22;4781;48.776;9.200;2023-02-28T11:20:28;3.50;99.90
9486;DHT22;4781;48.776;9.200;2023-02-28T11:22:59;3.60;99.70
9486;DHT22;4781;48.776;9.200;2023-02-28T11:25:32;3.70;99.30
9486;DHT22;4781;48.776;9.200;2023-02-28T11:28:04;3.60;99.00
9486;DHT22;4781;48.776;9.200;2023-02-28T11:30:36;3.60;99.50
9486;DHT22;4781;48.776;9.200;2023-02-28T11:33:40;3.90;99.90
9486;DHT22;4781;48.776;9.200;2023-02-28T11:36:18;4.10;99.80
9486;DHT22;4781;48.776;9.200;2023-02-28T11:38:44;3.80;98.50
9486;DHT22;4781;48.776;9.200;2023-02-28T11:47:26;4.00;98.40
9486;DHT22;4781;48.776;9.200;2023-02-28T11:55:27;4.70;98.20
9486;DHT22;4781;48.776;9.200;2023-02-28T11:58:20;5.00;97.50
9486;DHT22;4781;48.776;9.200;2023-02-28T12:04:31;4.90;96.90
9486;DHT22;4781;48.776;9.200;2023-02-28T12:10:18;4.50;97.10
9486;DHT22;4781;48.776;9.200;2023-02-28T12:13:06;4.60;98.40
9486;DHT22;4781;48.776;9.200;2023-02-28T12:22:20;5.10;96.00
9486;DHT22;4781;48.776;9.200;2023-02-28T12:27:54;4.50;95.10
9486;DHT22;4781;48.776;9.200;2023-02-28T12:30:31;4.70;96.80
9486;DHT22;4781;48.776;9.200;2023-02-28T12:33:06;4.70;95.80
9486;DHT22;4781;48.776;9.200;2023-02-28T12:35:57;4.70;95.90
9486;DHT22;4781;48.776;9.200;2023-02-28T12:38:29;4.80;96.00
9486;DHT22;4781;48.776;9.200;2023-02-28T12:44:00;4.90;95.00
9486;DHT22;4781;48.776;9.200;2023-02-28T12:46:50;4.90;95.70
9486;DHT22;4781;48.776;9.200;2023-02-28T12:49:25;5.00;96.00
9486;DHT22;4781;48.776;9.200;2023-02-28T12:52:00;5.00;95.10
9486;DHT22;4781;48.776;9.200;2023-02-28T12:57:35;4.70;95.10
9486;DHT22;4781;48.776;9.200;2023-02-28T13:00:20;4.50;95.40
9486;DHT22;4781;48.776;9.200;2023-02-28T13:06:14;4.80;95.40
9486;DHT22;4781;48.776;9.200;2023-02-28T13:09:01;4.80;95.70
9486;DHT22;4781;48.776;9.200;2023-02-28T13:11:43;4.90;95.30
9486;DHT22;4781;48.776;9.200;2023-02-28T13:14:29;4.90;95.30
9486;DHT22;4781;48.776;9.200;2023-02-28T13:19:46;4.90;94.70
9486;DHT22;4781;48.776;9.200;2023-02-28T13:22:47;4.90;94.90
9486;DHT22;4781;48.776;9.200;2023-02-28T13:28:13;5.00;94.40
9486;DHT22;4781;48.776;9.200;2023-02-28T13:38:51;5.50;94.70
9486;DHT22;4781;48.776;9.200;2023-02-28T13:44:20;5.70;94.60
9486;DHT22;4781;48.776;9.200;2023-02-28T13:49:26;5.70;94.10
9486;DHT22;4781;48.776;9.200;2023-02-28T14:00:59;5.90;93.40
9486;DHT22;4781;48.776;9.200;2023-02-28T14:06:53;6.10;93.30
9486;DHT22;4781;48.776;9.200;2023-02-28T14:09:24;6.20;93.70
9486;DHT22;4781;48.776;9.200;2023-02-28T14:15:04;6.00;93.00
9486;DHT22;4781;48.776;9.200;2023-02-28T14:17:55;6.00;92.60
9486;DHT22;4781;48.776;9.200;2023-02-28T14:20:27;5.90;92.90
9486;DHT22;4781;48.776;9.200;2023-02-28T14:35:51;5.70;93.20
9486;DHT22;4781;48.776;9.200;2023-02-28T14:38:31;5.70;93.90
9486;DHT22;4781;48.776;9.200;2023-02-28T14:41:04;5.70;93.50
9486;DHT22;4781;48.776;9.200;2023-02-28T14:43:35;5.70;92.80
9486;DHT22;4781;48.776;9.200;2023-02-28T14:46:04;5.70;92.90
9486;DHT22;4781;48.776;9.200;2023-02-28T14:48:35;5.80;93.10
9486;DHT22;4781;48.776;9.200;2023-02-28T14:51:04;5.90;93.30
9486;DHT22;4781;48.776;9.200;2023-02-28T14:53:35;6.00;93.90
9486;DHT22;4781;48.776;9.200;2023-02-28T14:56:05;6.00;93.00
9486;DHT22;4781;48.776;9.200;2023-02-28T14:58:35;6.00;92.70
9486;DHT22;4781;48.776;9.200;2023-02-28T15:01:04;6.10;93.20
9486;DHT22;4781;48.776;9.200;2023-02-28T15:03:39;6.10;93.00
9486;DHT22;4781;48.776;9.200;2023-02-28T15:06:16;6.10;93.00
9486;DHT22;4781;48.776;9.200;2023-02-28T15:08:47;6.10;92.70
9486;DHT22;4781;48.776;9.200;2023-02-28T15:11:17;6.20;93.10
9486;DHT22;4781;48.776;9.200;2023-02-28T15:13:53;6.20;92.90
9486;DHT22;4781;48.776;9.200;2023-02-28T15:16:31;6.20;92.70
9486;DHT22;4781;48.776;9.200;2023-02-28T15:19:07;6.20;92.50
9486;DHT22;4781;48.776;9.200;2023-02-28T15:21:46;6.20;92.50
9486;DHT22;4781;48.776;9.200;2023-02-28T15:27:07;6.20;92.50
9486;DHT22;4781;48.776;9.200;2023-02-28T15:29:58;6.30;93.00
9486;DHT22;4781;48.776;9.200;2023-02-28T15:32:32;6.20;92.70
9486;DHT22;4781;48.776;9.200;2023-02-28T15:35:24;6.30;92.70
9486;DHT22;4781;48.776;9.200;2023-02-28T15:40:36;6.20;91.90
9486;DHT22;4781;48.776;9.200;2023-02-28T15:43:28;6.20;92.50
9486;DHT22;4781;48.776;9.200;2023-02-28T15:46:11;6.20;92.80
9486;DHT22;4781;48.776;9.200;2023-02-28T15:48:53;6.20;93.30
9486;DHT22;4781;48.776;9.200;2023-02-28T15:51:33;6.10;92.90
9486;DHT22;4781;48.776;9.200;2023-02-28T15:54:10;6.00;92.30
9486;DHT22;4781;48.776;9.200;2023-02-28T15:56:45;5.80;92.70
9486;DHT22;4781;48.776;9.200;2023-02-28T15:59:17;5.70;93.10
9486;DHT22;4781;48.776;9.200;2023-02-28T16:02:01;5.70;93.00
9486;DHT22;4781;48.776;9.200;2023-02-28T16:04:30;5.60;92.90
9486;DHT22;4781;48.776;9.200;2023-02-28T16:07:01;5.50;93.00
9486;DHT22;4781;48.776;9.200;2023-02-28T16:09:31;5.40;92.80
9486;DHT22;4781;48.776;9.200;2023-02-28T16:12:02;5.40;93.40
9486;DHT22;4781;48.776;9.200;2023-02-28T16:14:31;5.30;93.40
9486;DHT22;4781;48.776;9.200;2023-02-28T16:17:06;5.20;93.40
9486;DHT22;4781;48.776;9.200;2023-02-28T16:19:37;5.10;93.90
9486;DHT22;4781;48.776;9.200;2023-02-28T16:22:05;5.10;93.60
9486;DHT22;4781;48.776;9.200;2023-02-28T16:24:35;5.00;93.60
9486;DHT22;4781;48.776;9.200;2023-02-28T16:27:05;4.90;93.80
9486;DHT22;4781;48.776;9.200;2023-02-28T16:29:35;4.90;93.60
9486;DHT22;4781;48.776;9.200;2023-02-28T16:32:05;4.90;93.50
9486;DHT22;4781;48.776;9.200;2023-02-28T16:34:34;4.80;93.40
9486;DHT22;4781;48.776;9.200;2023-02-28T16:37:21;4.70;93.50
9486;DHT22;4781;48.776;9.200;2023-02-28T16:39:50;4.70;93.70
9486;DHT22;4781;48.776;9.200;2023-02-28T16:42:23;4.60;93.70
9486;DHT22;4781;48.776;9.200;2023-02-28T16:44:52;4.60;93.80
9486;DHT22;4781;48.776;9.200;2023-02-28T16:47:22;4.60;93.80
9486;DHT22;4781;48.776;9.200;2023-02-28T16:49:52;4.50;93.90
9486;DHT22;4781;48.776;9.200;2023-02-28T16:52:21;4.50;93.90
9486;DHT22;4781;48.776;9.200;2023-02-28T16:54:49;4.50;94.30
9486;DHT22;4781;48.776;9.200;2023-02-28T16:57:22;4.40;94.60
9486;DHT22;4781;48.776;9.200;2023-02-28T16:59:51;4.40;94.30
9486;DHT22;4781;48.776;9.200;2023-02-28T17:02:20;4.30;94.50
9486;DHT22;4781;48.776;9.200;2023-02-28T17:04:48;4.30;94.50
9486;DHT22;4781;48.776;9.200;2023-02-28T17:07:17;4.20;94.70
9486;DHT22;4781;48.776;9.200;2023-02-28T17:09:45;4.20;94.80
9486;DHT22;4781;48.776;9.200;2023-02-28T17:12:14;4.10;94.80
9486;DHT22;4781;48.776;9.200;2023-02-28T17:14:49;4.10;94.90
9486;DHT22;4781;48.776;9.200;2023-02-28T17:17:20;4.00;94.80
9486;DHT22;4781;48.776;9.200;2023-02-28T17:19:49;4.00;95.00
9486;DHT22;4781;48.776;9.200;2023-02-28T17:22:17;3.90;95.20
9486;DHT22;4781;48.776;9.200;2023-02-28T17:24:45;3.80;95.20
9486;DHT22;4781;48.776;9.200;2023-02-28T17:27:14;3.80;95.40
9486;DHT22;4781;48.776;9.200;2023-02-28T17:29:42;3.80;95.50
9486;DHT22;4781;48.776;9.200;2023-02-28T17:32:10;3.80;95.40
9486;DHT22;4781;48.776;9.200;2023-02-28T17:34:39;3.70;95.60
9486;DHT22;4781;48.776;9.200;2023-02-28T17:37:09;3.70;95.70
9486;DHT22;4781;48.776;9.200;2023-02-28T17:39:38;3.60;95.80
9486;DHT22;4781;48.776;9.200;2023-02-28T17:42:06;3.60;95.90
9486;DHT22;4781;48.776;9.200;2023-02-28T17:44:34;3.50;96.20
9486;DHT22;4781;48.776;9.200;2023-02-28T17:47:04;3.40;96.00
9486;DHT22;4781;48.776;9.200;2023-02-28T17:49:32;3.40;96.10
9486;DHT22;4781;48.776;9.200;2023-02-28T17:52:00;3.40;96.20
9486;DHT22;4781;48.776;9.200;2023-02-28T17:54:29;3.30;96.20
9486;DHT22;4781;48.776;9.200;2023-02-28T17:56:57;3.30;96.30
9486;DHT22;4781;48.776;9.200;2023-02-28T17:59:26;3.30;96.30
9486;DHT22;4781;48.776;9.200;2023-02-28T18:02:00;3.20;96.50
9486;DHT22;4781;48.776;9.200;2023-02-28T18:04:30;3.20;96.50
9486;DHT22;4781;48.776;9.200;2023-02-28T18:06:58;3.10;96.60
9486;DHT22;4781;48.776;9.200;2023-02-28T18:09:27;3.10;96.70
9486;DHT22;4781;48.776;9.200;2023-02-28T18:11:56;3.00;96.80
9486;DHT22;4781;48.776;9.200;2023-02-28T18:14:25;3.00;96.80
9486;DHT22;4781;48.776;9.200;2023-02-28T18:16:54;3.00;96.90
9486;DHT22;4781;48.776;9.200;2023-02-28T18:19:23;2.90;97.10
9486;DHT22;4781;48.776;9.200;2023-02-28T18:21:53;2.90;97.10
9486;DHT22;4781;48.776;9.200;2023-02-28T18:24:22;2.90;97.30
9486;DHT22;4781;48.776;9.200;2023-02-28T18:26:51;2.80;97.40
9486;DHT22;4781;48.776;9.200;2023-02-28T18:29:22;2.70;97.40
9486;DHT22;4781;48.776;9.200;2023-02-28T18:31:53;2.70;97.70
9486;DHT22;4781;48.776;9.200;2023-02-28T18:34:23;2.60;98.00
9486;DHT22;4781;48.776;9.200;2023-02-28T18:36:53;2.60;98.00
9486;DHT22;4781;48.776;9.200;2023-02-28T18:39:22;2.50;98.00
9486;DHT22;4781;48.776;9.200;2023-02-28T18:41:51;2.50;98.20
9486;DHT22;4781;48.776;9.200;2023-02-28T18:44:19;2.40;98.00
9486;DHT22;4781;48.776;9.200;2023-02-28T18:46:48;2.40;98.30
9486;DHT22;4781;48.776;9.200;2023-02-28T18:49:18;2.40;98.40
9486;DHT22;4781;48.776;9.200;2023-02-28T18:51:47;2.30;98.70
9486;DHT22;4781;48.776;9.200;2023-02-28T18:54:16;2.20;98.80
9486;DHT22;4781;48.776;9.200;2023-02-28T18:56:44;2.20;98.70
9486;DHT22;4781;48.776;9.200;2023-02-28T18:59:13;2.20;98.90
9486;DHT22;4781;48.776;9.200;2023-02-28T19:01:42;2.10;99.10